sensor_id;sensor_type;location;lat;lon;timestamp;temperature;humidity
3850;DHT22;1940;51.052;13.678;2023-04-25T00:01:11;10.00;80.10
3850;DHT22;1940;51.052;13.678;2023-04-25T00:03:38;10.10;80.10
3850;DHT22;1940;51.052;13.678;2023-04-25T00:06:04;10.10;80.10
3850;DHT22;1940;51.052;13.678;2023-04-25T00:08:30;10.10;80.10
3850;DHT22;1940;51.052;13.678;2023-04-25T00:10:56;10.20;80.10
3850;DHT22;1940;51.052;13.678;2023-04-25T00:13:22;10.20;80.10
3850;DHT22;1940;51.052;13.678;2023-04-25T00:15:48;10.10;80.30
3850;DHT22;1940;51.052;13.678;2023-04-25T00:18:14;10.20;80.20
3850;DHT22;1940;51.052;13.678;2023-04-25T00:20:40;10.10;80.20
3850;DHT22;1940;51.052;13.678;2023-04-25T00:23:05;10.20;80.10
3850;DHT22;1940;51.052;13.678;2023-04-25T00:25:31;10.20;79.80
3850;DHT22;1940;51.052;13.678;2023-04-25T00:27:56;10.20;80.00
3850;DHT22;1940;51.052;13.678;2023-04-25T00:30:22;10.20;79.90
3850;DHT22;1940;51.052;13.678;2023-04-25T00:32:48;10.10;79.90
3850;DHT22;1940;51.052;13.678;2023-04-25T00:35:14;10.10;80.00
3850;DHT22;1940;51.052;13.678;2023-04-25T00:37:39;10.00;80.00
3850;DHT22;1940;51.052;13.678;2023-04-25T00:40:06;10.00;79.90
3850;DHT22;1940;51.052;13.678;2023-04-25T00:42:32;9.80;80.10
3850;DHT22;1940;51.052;13.678;2023-04-25T00:44:59;9.70;80.50
3850;DHT22;1940;51.052;13.678;2023-04-25T00:47:25;9.70;80.60
3850;DHT22;1940;51.052;13.678;2023-04-25T00:49:50;9.60;80.50
3850;DHT22;1940;51.052;13.678;2023-04-25T00:52:16;9.60;80.50
3850;DHT22;1940;51.052;13.678;2023-04-25T00:54:42;9.60;80.60
3850;DHT22;1940;51.052;13.678;2023-04-25T00:57:08;9.60;80.50
3850;DHT22;1940;51.052;13.678;2023-04-25T00:59:33;9.50;80.60
3850;DHT22;1940;51.052;13.678;2023-04-25T01:01:59;9.40;80.70
3850;DHT22;1940;51.052;13.678;2023-04-25T01:04:56;9.40;80.70
3850;DHT22;1940;51.052;13.678;2023-04-25T01:07:21;9.40;80.70
3850;DHT22;1940;51.052;13.678;2023-04-25T01:09:47;9.30;80.60
3850;DHT22;1940;51.052;13.678;2023-04-25T01:12:12;9.30;80.70
3850;DHT22;1940;51.052;13.678;2023-04-25T01:14:39;9.20;80.60
3850;DHT22;1940;51.052;13.678;2023-04-25T01:17:05;9.20;80.70
3850;DHT22;1940;51.052;13.678;2023-04-25T01:19:33;9.20;80.60
3850;DHT22;1940;51.052;13.678;2023-04-25T01:21:58;9.20;80.50
3850;DHT22;1940;51.052;13.678;2023-04-25T01:24:24;9.20;80.40
3850;DHT22;1940;51.052;13.678;2023-04-25T01:26:49;9.10;80.40
3850;DHT22;1940;51.052;13.678;2023-04-25T01:29:17;9.00;80.70
3850;DHT22;1940;51.052;13.678;2023-04-25T01:31:44;8.90;80.80
3850;DHT22;1940;51.052;13.678;2023-04-25T01:34:10;8.90;80.70
3850;DHT22;1940;51.052;13.678;2023-04-25T01:36:36;8.80;80.90
3850;DHT22;1940;51.052;13.678;2023-04-25T01:39:02;8.70;81.20
3850;DHT22;1940;51.052;13.678;2023-04-25T01:41:28;8.60;81.30
3850;DHT22;1940;51.052;13.678;2023-04-25T01:43:53;8.60;81.10
3850;DHT22;1940;51.052;13.678;2023-04-25T01:46:19;8.60;81.00
3850;DHT22;1940;51.052;13.678;2023-04-25T01:48:45;8.70;81.00
3850;DHT22;1940;51.052;13.678;2023-04-25T01:51:11;8.70;80.50
3850;DHT22;1940;51.052;13.678;2023-04-25T01:53:37;8.60;80.60
3850;DHT22;1940;51.052;13.678;2023-04-25T01:56:03;8.60;80.40
3850;DHT22;1940;51.052;13.678;2023-04-25T01:58:29;8.60;80.40
3850;DHT22;1940;51.052;13.678;2023-04-25T02:00:54;8.60;80.30
3850;DHT22;1940;51.052;13.678;2023-04-25T02:03:20;8.60;80.10
3850;DHT22;1940;51.052;13.678;2023-04-25T02:05:45;8.50;80.30
3850;DHT22;1940;51.052;13.678;2023-04-25T02:08:11;8.50;80.30
3850;DHT22;1940;51.052;13.678;2023-04-25T02:10:36;8.40;80.60
3850;DHT22;1940;51.052;13.678;2023-04-25T02:13:02;8.40;80.70
3850;DHT22;1940;51.052;13.678;2023-04-25T02:15:29;8.40;80.70
3850;DHT22;1940;51.052;13.678;2023-04-25T02:17:55;8.40;80.60
3850;DHT22;1940;51.052;13.678;2023-04-25T02:20:21;8.40;80.60
3850;DHT22;1940;51.052;13.678;2023-04-25T02:22:47;8.40;80.60
3850;DHT22;1940;51.052;13.678;2023-04-25T02:25:12;8.40;80.50
3850;DHT22;1940;51.052;13.678;2023-04-25T02:27:38;8.40;80.50
3850;DHT22;1940;51.052;13.678;2023-04-25T02:30:04;8.40;80.60
3850;DHT22;1940;51.052;13.678;2023-04-25T02:32:32;8.40;80.60
3850;DHT22;1940;51.052;13.678;2023-04-25T02:34:57;8.30;80.60
3850;DHT22;1940;51.052;13.678;2023-04-25T02:37:29;8.20;80.90
3850;DHT22;1940;51.052;13.678;2023-04-25T02:39:54;8.20;81.00
3850;DHT22;1940;51.052;13.678;2023-04-25T02:42:20;8.20;81.10
3850;DHT22;1940;51.052;13.678;2023-04-25T02:44:45;8.20;81.10
3850;DHT22;1940;51.052;13.678;2023-04-25T02:47:11;8.10;81.20
3850;DHT22;1940;51.052;13.678;2023-04-25T02:49:36;8.10;81.30
3850;DHT22;1940;51.052;13.678;2023-04-25T02:52:02;8.10;81.40
3850;DHT22;1940;51.052;13.678;2023-04-25T02:54:27;8.00;81.50
3850;DHT22;1940;51.052;13.678;2023-04-25T02:56:53;8.00;81.80
3850;DHT22;1940;51.052;13.678;2023-04-25T02:59:18;8.00;81.80
3850;DHT22;1940;51.052;13.678;2023-04-25T03:01:44;8.00;81.70
3850;DHT22;1940;51.052;13.678;2023-04-25T03:04:10;8.00;81.90
3850;DHT22;1940;51.052;13.678;2023-04-25T03:06:36;8.00;82.00
3850;DHT22;1940;51.052;13.678;2023-04-25T03:09:01;7.90;82.00
3850;DHT22;1940;51.052;13.678;2023-04-25T03:11:27;7.90;82.10
3850;DHT22;1940;51.052;13.678;2023-04-25T03:13:52;7.80;82.30
3850;DHT22;1940;51.052;13.678;2023-04-25T03:16:17;7.80;82.40
3850;DHT22;1940;51.052;13.678;2023-04-25T03:18:43;7.80;82.30
3850;DHT22;1940;51.052;13.678;2023-04-25T03:21:09;7.80;82.20
3850;DHT22;1940;51.052;13.678;2023-04-25T03:23:34;7.80;82.30
3850;DHT22;1940;51.052;13.678;2023-04-25T03:26:00;7.70;82.50
3850;DHT22;1940;51.052;13.678;2023-04-25T03:28:25;7.80;82.50
3850;DHT22;1940;51.052;13.678;2023-04-25T03:30:51;7.80;82.50
3850;DHT22;1940;51.052;13.678;2023-04-25T03:33:16;7.80;82.50
3850;DHT22;1940;51.052;13.678;2023-04-25T03:35:42;7.80;82.40
3850;DHT22;1940;51.052;13.678;2023-04-25T03:38:08;7.80;82.60
3850;DHT22;1940;51.052;13.678;2023-04-25T03:40:33;7.70;82.60
3850;DHT22;1940;51.052;13.678;2023-04-25T03:42:59;7.80;82.30
3850;DHT22;1940;51.052;13.678;2023-04-25T03:45:25;7.80;82.40
3850;DHT22;1940;51.052;13.678;2023-04-25T03:47:50;7.80;82.40
3850;DHT22;1940;51.052;13.678;2023-04-25T03:50:16;7.70;82.40
3850;DHT22;1940;51.052;13.678;2023-04-25T03:52:43;7.60;82.60
3850;DHT22;1940;51.052;13.678;2023-04-25T03:55:09;7.60;82.80
3850;DHT22;1940;51.052;13.678;2023-04-25T03:57:35;7.60;82.90
3850;DHT22;1940;51.052;13.678;2023-04-25T04:00:00;7.60;82.80
3850;DHT22;1940;51.052;13.678;2023-04-25T04:02:26;7.70;82.80
3850;DHT22;1940;51.052;13.678;2023-04-25T04:04:51;7.60;83.10
3850;DHT22;1940;51.052;13.678;2023-04-25T04:07:17;7.60;83.10
3850;DHT22;1940;51.052;13.678;2023-04-25T04:09:42;7.60;82.90
3850;DHT22;1940;51.052;13.678;2023-04-25T04:12:08;7.60;82.80
3850;DHT22;1940;51.052;13.678;2023-04-25T04:14:33;7.60;82.80
3850;DHT22;1940;51.052;13.678;2023-04-25T04:16:59;7.60;82.80
3850;DHT22;1940;51.052;13.678;2023-04-25T04:19:25;7.60;82.60
3850;DHT22;1940;51.052;13.678;2023-04-25T04:21:50;7.60;82.30
3850;DHT22;1940;51.052;13.678;2023-04-25T04:24:16;7.70;82.30
3850;DHT22;1940;51.052;13.678;2023-04-25T04:26:42;7.70;82.30
3850;DHT22;1940;51.052;13.678;2023-04-25T04:29:10;7.80;82.20
3850;DHT22;1940;51.052;13.678;2023-04-25T04:31:36;7.80;81.90
3850;DHT22;1940;51.052;13.678;2023-04-25T04:34:02;7.80;81.70
3850;DHT22;1940;51.052;13.678;2023-04-25T04:36:29;7.80;82.10
3850;DHT22;1940;51.052;13.678;2023-04-25T04:38:54;7.80;82.00
3850;DHT22;1940;51.052;13.678;2023-04-25T04:41:21;8.00;82.00
3850;DHT22;1940;51.052;13.678;2023-04-25T04:43:47;8.10;81.30
3850;DHT22;1940;51.052;13.678;2023-04-25T04:46:12;8.20;81.10
3850;DHT22;1940;51.052;13.678;2023-04-25T04:48:38;8.50;80.40
3850;DHT22;1940;51.052;13.678;2023-04-25T04:51:05;8.80;79.60
3850;DHT22;1940;51.052;13.678;2023-04-25T04:53:31;9.30;78.20
3850;DHT22;1940;51.052;13.678;2023-04-25T04:55:57;9.80;76.40
3850;DHT22;1940;51.052;13.678;2023-04-25T04:58:23;9.90;75.80
3850;DHT22;1940;51.052;13.678;2023-04-25T05:00:49;10.30;75.00
3850;DHT22;1940;51.052;13.678;2023-04-25T05:03:14;11.00;72.70
3850;DHT22;1940;51.052;13.678;2023-04-25T05:05:40;11.50;71.70
3850;DHT22;1940;51.052;13.678;2023-04-25T05:08:06;11.90;70.40
3850;DHT22;1940;51.052;13.678;2023-04-25T05:10:31;12.40;68.90
3850;DHT22;1940;51.052;13.678;2023-04-25T05:12:57;13.00;67.40
3850;DHT22;1940;51.052;13.678;2023-04-25T05:15:22;13.60;66.40
3850;DHT22;1940;51.052;13.678;2023-04-25T05:17:48;14.50;64.00
3850;DHT22;1940;51.052;13.678;2023-04-25T05:20:13;15.00;62.90
3850;DHT22;1940;51.052;13.678;2023-04-25T05:22:39;15.50;61.00
3850;DHT22;1940;51.052;13.678;2023-04-25T05:25:07;15.60;60.30
3850;DHT22;1940;51.052;13.678;2023-04-25T05:27:33;15.80;60.10
3850;DHT22;1940;51.052;13.678;2023-04-25T05:29:58;15.50;60.20
3850;DHT22;1940;51.052;13.678;2023-04-25T05:32:24;15.10;60.50
3850;DHT22;1940;51.052;13.678;2023-04-25T05:34:50;14.90;61.20
3850;DHT22;1940;51.052;13.678;2023-04-25T05:37:16;15.00;61.50
3850;DHT22;1940;51.052;13.678;2023-04-25T05:39:41;15.20;60.10
3850;DHT22;1940;51.052;13.678;2023-04-25T05:42:06;15.40;60.50
3850;DHT22;1940;51.052;13.678;2023-04-25T05:44:32;15.80;59.30
3850;DHT22;1940;51.052;13.678;2023-04-25T05:46:57;15.20;58.50
3850;DHT22;1940;51.052;13.678;2023-04-25T05:49:23;15.30;59.60
3850;DHT22;1940;51.052;13.678;2023-04-25T05:51:48;15.30;60.00
3850;DHT22;1940;51.052;13.678;2023-04-25T05:54:14;16.10;57.80
3850;DHT22;1940;51.052;13.678;2023-04-25T05:56:39;16.20;56.80
3850;DHT22;1940;51.052;13.678;2023-04-25T05:59:05;16.20;57.20
3850;DHT22;1940;51.052;13.678;2023-04-25T06:01:31;16.00;57.20
3850;DHT22;1940;51.052;13.678;2023-04-25T06:03:57;15.80;57.90
3850;DHT22;1940;51.052;13.678;2023-04-25T06:06:22;15.40;57.90
3850;DHT22;1940;51.052;13.678;2023-04-25T06:08:48;15.20;58.50
3850;DHT22;1940;51.052;13.678;2023-04-25T06:11:13;15.60;58.50
3850;DHT22;1940;51.052;13.678;2023-04-25T06:13:39;15.50;58.20
3850;DHT22;1940;51.052;13.678;2023-04-25T06:16:05;15.90;57.60
3850;DHT22;1940;51.052;13.678;2023-04-25T06:18:30;15.90;57.50
3850;DHT22;1940;51.052;13.678;2023-04-25T06:20:56;15.90;57.60
3850;DHT22;1940;51.052;13.678;2023-04-25T06:23:22;15.80;57.30
3850;DHT22;1940;51.052;13.678;2023-04-25T06:25:47;15.60;57.90
3850;DHT22;1940;51.052;13.678;2023-04-25T06:28:13;16.10;56.90
3850;DHT22;1940;51.052;13.678;2023-04-25T06:30:38;15.20;58.30
3850;DHT22;1940;51.052;13.678;2023-04-25T06:33:04;15.40;58.10
3850;DHT22;1940;51.052;13.678;2023-04-25T06:35:29;15.20;58.10
3850;DHT22;1940;51.052;13.678;2023-04-25T06:37:55;14.70;58.90
3850;DHT22;1940;51.052;13.678;2023-04-25T06:40:20;15.10;58.80
3850;DHT22;1940;51.052;13.678;2023-04-25T06:42:45;15.00;58.30
3850;DHT22;1940;51.052;13.678;2023-04-25T06:45:11;14.90;58.70
3850;DHT22;1940;51.052;13.678;2023-04-25T06:47:37;15.00;59.10
3850;DHT22;1940;51.052;13.678;2023-04-25T06:50:02;15.00;58.50
3850;DHT22;1940;51.052;13.678;2023-04-25T06:52:28;15.00;58.60
3850;DHT22;1940;51.052;13.678;2023-04-25T06:54:53;14.90;58.90
3850;DHT22;1940;51.052;13.678;2023-04-25T06:57:19;14.90;59.00
3850;DHT22;1940;51.052;13.678;2023-04-25T06:59:44;14.90;59.20
3850;DHT22;1940;51.052;13.678;2023-04-25T07:02:10;14.70;59.60
3850;DHT22;1940;51.052;13.678;2023-04-25T07:04:35;15.00;59.00
3850;DHT22;1940;51.052;13.678;2023-04-25T07:07:01;15.40;58.20
3850;DHT22;1940;51.052;13.678;2023-04-25T07:09:28;15.80;57.40
3850;DHT22;1940;51.052;13.678;2023-04-25T07:11:54;15.40;57.30
3850;DHT22;1940;51.052;13.678;2023-04-25T07:14:19;15.40;57.10
3850;DHT22;1940;51.052;13.678;2023-04-25T07:16:45;15.30;58.20
3850;DHT22;1940;51.052;13.678;2023-04-25T07:19:10;15.80;56.30
3850;DHT22;1940;51.052;13.678;2023-04-25T07:21:36;16.30;55.40
3850;DHT22;1940;51.052;13.678;2023-04-25T07:24:02;16.10;55.90
3850;DHT22;1940;51.052;13.678;2023-04-25T07:26:27;15.90;56.40
3850;DHT22;1940;51.052;13.678;2023-04-25T07:28:53;16.20;55.70
3850;DHT22;1940;51.052;13.678;2023-04-25T07:31:19;16.70;54.40
3850;DHT22;1940;51.052;13.678;2023-04-25T07:33:45;16.60;54.30
3850;DHT22;1940;51.052;13.678;2023-04-25T07:36:11;16.00;54.90
3850;DHT22;1940;51.052;13.678;2023-04-25T07:38:37;15.20;57.10
3850;DHT22;1940;51.052;13.678;2023-04-25T07:41:03;15.60;56.80
3850;DHT22;1940;51.052;13.678;2023-04-25T07:43:28;15.90;56.00
3850;DHT22;1940;51.052;13.678;2023-04-25T07:45:54;16.30;55.70
3850;DHT22;1940;51.052;13.678;2023-04-25T07:48:20;16.70;54.90
3850;DHT22;1940;51.052;13.678;2023-04-25T07:50:45;16.00;55.70
3850;DHT22;1940;51.052;13.678;2023-04-25T07:53:11;15.70;56.20
3850;DHT22;1940;51.052;13.678;2023-04-25T07:55:36;16.50;55.90
3850;DHT22;1940;51.052;13.678;2023-04-25T07:58:08;16.90;53.70
3850;DHT22;1940;51.052;13.678;2023-04-25T08:00:34;16.40;54.90
3850;DHT22;1940;51.052;13.678;2023-04-25T08:02:59;17.20;54.40
3850;DHT22;1940;51.052;13.678;2023-04-25T08:05:25;17.60;53.50
3850;DHT22;1940;51.052;13.678;2023-04-25T08:07:50;16.70;53.50
3850;DHT22;1940;51.052;13.678;2023-04-25T08:10:16;16.40;55.30
3850;DHT22;1940;51.052;13.678;2023-04-25T08:12:41;16.00;56.10
3850;DHT22;1940;51.052;13.678;2023-04-25T08:15:08;15.60;56.90
3850;DHT22;1940;51.052;13.678;2023-04-25T08:17:33;15.20;57.80
3850;DHT22;1940;51.052;13.678;2023-04-25T08:19:59;15.00;58.70
3850;DHT22;1940;51.052;13.678;2023-04-25T08:22:24;14.80;59.80
3850;DHT22;1940;51.052;13.678;2023-04-25T08:24:50;14.40;60.40
3850;DHT22;1940;51.052;13.678;2023-04-25T08:27:16;14.10;60.30
3850;DHT22;1940;51.052;13.678;2023-04-25T08:29:42;13.60;61.60
3850;DHT22;1940;51.052;13.678;2023-04-25T08:32:07;13.70;62.30
3850;DHT22;1940;51.052;13.678;2023-04-25T08:34:33;14.50;61.60
3850;DHT22;1940;51.052;13.678;2023-04-25T08:36:58;14.50;60.70
3850;DHT22;1940;51.052;13.678;2023-04-25T08:39:24;14.00;61.60
3850;DHT22;1940;51.052;13.678;2023-04-25T08:41:50;13.40;62.30
3850;DHT22;1940;51.052;13.678;2023-04-25T08:44:16;13.10;63.80
3850;DHT22;1940;51.052;13.678;2023-04-25T08:46:41;12.80;64.40
3850;DHT22;1940;51.052;13.678;2023-04-25T08:49:08;12.30;64.50
3850;DHT22;1940;51.052;13.678;2023-04-25T08:51:44;11.90;65.90
3850;DHT22;1940;51.052;13.678;2023-04-25T08:54:12;11.60;68.00
3850;DHT22;1940;51.052;13.678;2023-04-25T08:56:39;11.60;67.60
3850;DHT22;1940;51.052;13.678;2023-04-25T08:59:05;11.60;68.10
3850;DHT22;1940;51.052;13.678;2023-04-25T09:01:36;12.20;67.00
3850;DHT22;1940;51.052;13.678;2023-04-25T09:04:02;12.60;66.30
3850;DHT22;1940;51.052;13.678;2023-04-25T09:06:29;12.90;64.90
3850;DHT22;1940;51.052;13.678;2023-04-25T09:09:01;13.00;65.40
3850;DHT22;1940;51.052;13.678;2023-04-25T09:11:27;12.50;64.80
3850;DHT22;1940;51.052;13.678;2023-04-25T09:14:16;12.50;65.40
3850;DHT22;1940;51.052;13.678;2023-04-25T09:17:03;12.00;66.90
3850;DHT22;1940;51.052;13.678;2023-04-25T09:19:31;11.90;67.80
3850;DHT22;1940;51.052;13.678;2023-04-25T09:21:59;11.80;67.50
3850;DHT22;1940;51.052;13.678;2023-04-25T09:24:44;11.70;66.90
3850;DHT22;1940;51.052;13.678;2023-04-25T09:27:12;11.50;67.00
3850;DHT22;1940;51.052;13.678;2023-04-25T09:29:40;11.40;67.40
3850;DHT22;1940;51.052;13.678;2023-04-25T09:32:24;11.60;67.40
3850;DHT22;1940;51.052;13.678;2023-04-25T09:34:52;11.50;68.10
3850;DHT22;1940;51.052;13.678;2023-04-25T09:39:46;11.40;69.00
3850;DHT22;1940;51.052;13.678;2023-04-25T09:42:16;11.10;69.20
3850;DHT22;1940;51.052;13.678;2023-04-25T09:44:46;11.00;69.50
3850;DHT22;1940;51.052;13.678;2023-04-25T09:47:15;10.80;70.50
3850;DHT22;1940;51.052;13.678;2023-04-25T09:49:43;10.70;70.80
3850;DHT22;1940;51.052;13.678;2023-04-25T09:52:14;10.70;71.20
3850;DHT22;1940;51.052;13.678;2023-04-25T09:54:40;10.80;70.80
3850;DHT22;1940;51.052;13.678;2023-04-25T09:57:16;10.90;70.60
3850;DHT22;1940;51.052;13.678;2023-04-25T09:59:55;11.00;70.00
3850;DHT22;1940;51.052;13.678;2023-04-25T10:02:23;10.90;70.20
3850;DHT22;1940;51.052;13.678;2023-04-25T10:04:51;11.00;70.50
3850;DHT22;1940;51.052;13.678;2023-04-25T10:07:19;11.20;69.90
3850;DHT22;1940;51.052;13.678;2023-04-25T10:09:48;11.40;69.50
3850;DHT22;1940;51.052;13.678;2023-04-25T10:12:16;11.50;69.00
3850;DHT22;1940;51.052;13.678;2023-04-25T10:14:42;11.80;69.10
3850;DHT22;1940;51.052;13.678;2023-04-25T10:17:10;12.00;68.60
3850;DHT22;1940;51.052;13.678;2023-04-25T10:19:36;12.30;68.10
3850;DHT22;1940;51.052;13.678;2023-04-25T10:22:03;12.30;67.80
3850;DHT22;1940;51.052;13.678;2023-04-25T10:24:29;12.00;68.00
3850;DHT22;1940;51.052;13.678;2023-04-25T10:26:56;12.30;68.60
3850;DHT22;1940;51.052;13.678;2023-04-25T10:29:24;12.30;67.20
3850;DHT22;1940;51.052;13.678;2023-04-25T10:31:50;12.40;67.30
3850;DHT22;1940;51.052;13.678;2023-04-25T10:34:16;12.60;68.00
3850;DHT22;1940;51.052;13.678;2023-04-25T10:36:42;12.80;67.60
3850;DHT22;1940;51.052;13.678;2023-04-25T10:39:08;12.90;66.60
3850;DHT22;1940;51.052;13.678;2023-04-25T10:41:56;12.80;66.80
3850;DHT22;1940;51.052;13.678;2023-04-25T10:44:22;12.80;66.80
3850;DHT22;1940;51.052;13.678;2023-04-25T10:46:48;12.40;67.20
3850;DHT22;1940;51.052;13.678;2023-04-25T10:49:42;12.30;68.40
3850;DHT22;1940;51.052;13.678;2023-04-25T10:52:15;12.10;68.40
3850;DHT22;1940;51.052;13.678;2023-04-25T10:54:51;11.60;69.60
3850;DHT22;1940;51.052;13.678;2023-04-25T10:57:47;11.40;70.40
3850;DHT22;1940;51.052;13.678;2023-04-25T11:00:15;11.20;72.00
3850;DHT22;1940;51.052;13.678;2023-04-25T11:02:47;10.90;72.40
3850;DHT22;1940;51.052;13.678;2023-04-25T11:05:33;10.80;72.80
3850;DHT22;1940;51.052;13.678;2023-04-25T11:07:59;10.70;73.40
3850;DHT22;1940;51.052;13.678;2023-04-25T11:10:32;10.70;73.40
3850;DHT22;1940;51.052;13.678;2023-04-25T11:12:58;10.70;73.00
3850;DHT22;1940;51.052;13.678;2023-04-25T11:15:24;10.60;73.80
3850;DHT22;1940;51.052;13.678;2023-04-25T11:17:53;10.80;73.40
3850;DHT22;1940;51.052;13.678;2023-04-25T11:20:19;11.00;73.30
3850;DHT22;1940;51.052;13.678;2023-04-25T11:22:46;11.10;73.80
3850;DHT22;1940;51.052;13.678;2023-04-25T11:25:13;11.20;74.00
3850;DHT22;1940;51.052;13.678;2023-04-25T11:27:56;10.80;74.30
3850;DHT22;1940;51.052;13.678;2023-04-25T11:30:23;10.70;74.50
3850;DHT22;1940;51.052;13.678;2023-04-25T11:32:49;11.00;72.90
3850;DHT22;1940;51.052;13.678;2023-04-25T11:35:15;11.00;72.00
3850;DHT22;1940;51.052;13.678;2023-04-25T11:37:44;11.00;71.90
3850;DHT22;1940;51.052;13.678;2023-04-25T11:40:10;11.10;72.60
3850;DHT22;1940;51.052;13.678;2023-04-25T11:42:43;11.10;72.30
3850;DHT22;1940;51.052;13.678;2023-04-25T11:45:09;11.50;74.60
3850;DHT22;1940;51.052;13.678;2023-04-25T11:47:36;11.70;73.60
3850;DHT22;1940;51.052;13.678;2023-04-25T11:50:03;11.70;72.30
3850;DHT22;1940;51.052;13.678;2023-04-25T11:52:56;11.90;72.50
3850;DHT22;1940;51.052;13.678;2023-04-25T11:55:21;12.10;69.80
3850;DHT22;1940;51.052;13.678;2023-04-25T11:57:49;11.90;69.80
3850;DHT22;1940;51.052;13.678;2023-04-25T12:00:20;11.50;70.40
3850;DHT22;1940;51.052;13.678;2023-04-25T12:02:47;11.60;70.70
3850;DHT22;1940;51.052;13.678;2023-04-25T12:05:14;11.50;70.30
3850;DHT22;1940;51.052;13.678;2023-04-25T12:07:41;11.60;69.80
3850;DHT22;1940;51.052;13.678;2023-04-25T12:10:10;11.80;69.30
3850;DHT22;1940;51.052;13.678;2023-04-25T12:12:38;11.70;69.10
3850;DHT22;1940;51.052;13.678;2023-04-25T12:15:16;11.50;69.20
3850;DHT22;1940;51.052;13.678;2023-04-25T12:17:45;11.70;69.20
3850;DHT22;1940;51.052;13.678;2023-04-25T12:20:17;11.20;69.90
3850;DHT22;1940;51.052;13.678;2023-04-25T12:22:45;11.00;70.60
3850;DHT22;1940;51.052;13.678;2023-04-25T12:28:09;11.20;69.60
3850;DHT22;1940;51.052;13.678;2023-04-25T12:30:58;11.10;69.60
3850;DHT22;1940;51.052;13.678;2023-04-25T12:33:25;11.30;68.30
3850;DHT22;1940;51.052;13.678;2023-04-25T12:35:52;11.20;68.60
3850;DHT22;1940;51.052;13.678;2023-04-25T12:38:25;11.80;67.90
3850;DHT22;1940;51.052;13.678;2023-04-25T12:40:52;12.20;66.90
3850;DHT22;1940;51.052;13.678;2023-04-25T12:43:17;12.20;65.70
3850;DHT22;1940;51.052;13.678;2023-04-25T12:45:44;12.10;64.60
3850;DHT22;1940;51.052;13.678;2023-04-25T12:48:10;12.00;64.50
3850;DHT22;1940;51.052;13.678;2023-04-25T12:50:36;12.00;64.90
3850;DHT22;1940;51.052;13.678;2023-04-25T12:53:01;12.00;65.20
3850;DHT22;1940;51.052;13.678;2023-04-25T12:55:27;12.00;65.50
3850;DHT22;1940;51.052;13.678;2023-04-25T12:57:52;11.80;65.70
3850;DHT22;1940;51.052;13.678;2023-04-25T13:00:18;11.60;65.90
3850;DHT22;1940;51.052;13.678;2023-04-25T13:02:45;11.70;66.40
3850;DHT22;1940;51.052;13.678;2023-04-25T13:05:12;11.50;66.60
3850;DHT22;1940;51.052;13.678;2023-04-25T13:07:38;11.20;67.40
3850;DHT22;1940;51.052;13.678;2023-04-25T13:10:04;11.20;67.20
3850;DHT22;1940;51.052;13.678;2023-04-25T13:12:29;11.20;67.90
3850;DHT22;1940;51.052;13.678;2023-04-25T13:14:55;11.10;67.60
3850;DHT22;1940;51.052;13.678;2023-04-25T13:17:21;10.90;68.30
3850;DHT22;1940;51.052;13.678;2023-04-25T13:19:46;10.90;69.00
3850;DHT22;1940;51.052;13.678;2023-04-25T13:22:12;10.70;69.10
3850;DHT22;1940;51.052;13.678;2023-04-25T13:24:40;10.40;70.60
3850;DHT22;1940;51.052;13.678;2023-04-25T13:27:06;10.20;72.10
3850;DHT22;1940;51.052;13.678;2023-04-25T13:29:31;10.10;72.10
3850;DHT22;1940;51.052;13.678;2023-04-25T13:31:59;10.10;73.00
3850;DHT22;1940;51.052;13.678;2023-04-25T13:34:24;9.90;70.50
3850;DHT22;1940;51.052;13.678;2023-04-25T13:36:50;9.70;69.00
3850;DHT22;1940;51.052;13.678;2023-04-25T13:39:15;9.80;68.70
3850;DHT22;1940;51.052;13.678;2023-04-25T13:41:41;9.70;68.20
3850;DHT22;1940;51.052;13.678;2023-04-25T13:44:06;9.70;68.50
3850;DHT22;1940;51.052;13.678;2023-04-25T13:46:32;9.60;68.50
3850;DHT22;1940;51.052;13.678;2023-04-25T13:48:57;9.60;68.80
3850;DHT22;1940;51.052;13.678;2023-04-25T13:51:23;9.70;69.00
3850;DHT22;1940;51.052;13.678;2023-04-25T13:53:48;9.60;68.80
3850;DHT22;1940;51.052;13.678;2023-04-25T13:56:14;9.50;68.70
3850;DHT22;1940;51.052;13.678;2023-04-25T13:58:39;9.60;68.90
3850;DHT22;1940;51.052;13.678;2023-04-25T14:01:05;9.80;69.10
3850;DHT22;1940;51.052;13.678;2023-04-25T14:03:31;9.80;69.30
3850;DHT22;1940;51.052;13.678;2023-04-25T14:05:56;9.90;69.00
3850;DHT22;1940;51.052;13.678;2023-04-25T14:08:22;9.90;68.50
3850;DHT22;1940;51.052;13.678;2023-04-25T14:10:47;9.90;67.80
3850;DHT22;1940;51.052;13.678;2023-04-25T14:13:13;10.00;67.90
3850;DHT22;1940;51.052;13.678;2023-04-25T14:15:38;10.10;67.20
3850;DHT22;1940;51.052;13.678;2023-04-25T14:18:04;10.30;67.40
3850;DHT22;1940;51.052;13.678;2023-04-25T14:20:29;10.40;67.70
3850;DHT22;1940;51.052;13.678;2023-04-25T14:22:55;10.40;67.60
3850;DHT22;1940;51.052;13.678;2023-04-25T14:25:21;10.60;67.60
3850;DHT22;1940;51.052;13.678;2023-04-25T14:27:47;10.60;67.60
3850;DHT22;1940;51.052;13.678;2023-04-25T14:30:16;10.60;67.70
3850;DHT22;1940;51.052;13.678;2023-04-25T14:32:42;10.80;67.70
3850;DHT22;1940;51.052;13.678;2023-04-25T14:35:08;11.00;67.20
3850;DHT22;1940;51.052;13.678;2023-04-25T14:37:34;11.20;66.40
3850;DHT22;1940;51.052;13.678;2023-04-25T14:39:59;11.50;66.90
3850;DHT22;1940;51.052;13.678;2023-04-25T14:42:25;11.80;65.50
3850;DHT22;1940;51.052;13.678;2023-04-25T14:44:50;11.80;63.90
3850;DHT22;1940;51.052;13.678;2023-04-25T14:47:16;11.70;64.40
3850;DHT22;1940;51.052;13.678;2023-04-25T14:49:42;11.60;63.90
3850;DHT22;1940;51.052;13.678;2023-04-25T14:52:07;11.80;64.20
3850;DHT22;1940;51.052;13.678;2023-04-25T14:54:33;11.90;64.30
3850;DHT22;1940;51.052;13.678;2023-04-25T14:56:58;11.80;63.90
3850;DHT22;1940;51.052;13.678;2023-04-25T14:59:24;11.50;64.80
3850;DHT22;1940;51.052;13.678;2023-04-25T15:01:50;11.60;65.30
3850;DHT22;1940;51.052;13.678;2023-04-25T15:04:16;11.70;65.10
3850;DHT22;1940;51.052;13.678;2023-04-25T15:06:42;11.70;63.20
3850;DHT22;1940;51.052;13.678;2023-04-25T15:09:08;11.30;63.10
3850;DHT22;1940;51.052;13.678;2023-04-25T15:11:35;11.00;62.70
3850;DHT22;1940;51.052;13.678;2023-04-25T15:14:00;11.00;64.10
3850;DHT22;1940;51.052;13.678;2023-04-25T15:16:26;10.90;62.80
3850;DHT22;1940;51.052;13.678;2023-04-25T15:18:51;10.80;63.10
3850;DHT22;1940;51.052;13.678;2023-04-25T15:21:17;10.80;62.80
3850;DHT22;1940;51.052;13.678;2023-04-25T15:23:42;10.70;62.70
3850;DHT22;1940;51.052;13.678;2023-04-25T15:26:08;10.60;62.90
3850;DHT22;1940;51.052;13.678;2023-04-25T15:28:33;10.60;63.00
3850;DHT22;1940;51.052;13.678;2023-04-25T15:30:59;10.50;62.30
3850;DHT22;1940;51.052;13.678;2023-04-25T15:33:25;10.40;62.70
3850;DHT22;1940;51.052;13.678;2023-04-25T15:35:51;10.40;62.40
3850;DHT22;1940;51.052;13.678;2023-04-25T15:38:16;10.30;63.20
3850;DHT22;1940;51.052;13.678;2023-04-25T15:40:42;10.20;63.70
3850;DHT22;1940;51.052;13.678;2023-04-25T15:43:07;10.20;63.20
3850;DHT22;1940;51.052;13.678;2023-04-25T15:45:39;10.10;63.10
3850;DHT22;1940;51.052;13.678;2023-04-25T15:48:05;10.10;63.60
3850;DHT22;1940;51.052;13.678;2023-04-25T15:50:31;10.10;63.40
3850;DHT22;1940;51.052;13.678;2023-04-25T15:52:57;10.10;63.70